Time;durP1;ratioP1;P1;durP2;ratioP2;P2;SDS_P1;SDS_P2;PMS_P1;PMS_P2;Temp;Humidity;BMP_temperature;BMP_pressure;BME280_temperature;BME280_humidity;BME280_pressure;Samples;Min_cycle;Max_cycle;Signal;HPM_P1;HPM_P2
2021/10/13 00:01:37;;;;;;;15.00;9.20;;;8.20;99.90;;;8.48;76.01;97954.84;5024651;28;20263;-47
2021/10/13 00:04:05;;;;;;;13.87;8.73;;;8.30;99.90;;;8.42;75.71;97966.84;5025579;28;20240;-45
2021/10/13 00:06:33;;;;;;;16.67;9.20;;;8.20;99.90;;;8.24;76.28;97958.72;5025730;28;20061;-47
2021/10/13 00:09:01;;;;;;;14.63;9.07;;;8.00;99.90;;;8.35;75.59;97956.91;5025044;28;20064;-45
2021/10/13 00:11:29;;;;;;;11.43;7.80;;;8.00;99.90;;;7.99;76.43;97960.09;5026620;28;20041;-46
2021/10/13 00:13:56;;;;;;;12.37;8.83;;;7.90;99.90;;;8.15;76.03;97964.84;5025750;28;20051;-44
2021/10/13 00:16:25;;;;;;;14.13;9.00;;;7.90;99.90;;;7.97;76.50;97972.66;5025638;28;20584;-46
2021/10/13 00:18:52;;;;;;;14.03;9.07;;;7.80;99.90;;;7.89;76.51;97972.50;5026313;28;20063;-45
2021/10/13 00:21:20;;;;;;;15.70;9.27;;;7.70;99.90;;;7.92;76.18;97972.22;5027092;28;20706;-44
2021/10/13 00:23:48;;;;;;;12.67;8.90;;;7.70;99.90;;;7.97;76.22;97977.09;5025989;28;20060;-47
2021/10/13 00:26:16;;;;;;;13.77;8.70;;;7.70;99.90;;;7.87;76.29;97980.59;5022905;28;20052;-45
2021/10/13 00:28:44;;;;;;;11.37;8.43;;;7.70;99.90;;;7.91;76.00;97989.09;5025698;28;20071;-45
2021/10/13 00:31:12;;;;;;;12.63;7.93;;;7.60;99.90;;;7.86;76.03;97994.78;5025132;28;20063;-45
2021/10/13 00:33:40;;;;;;;11.87;8.43;;;7.60;99.90;;;7.93;76.00;97997.75;5024442;28;20055;-48
2021/10/13 00:36:08;;;;;;;13.30;8.47;;;7.70;99.90;;;7.99;75.57;97991.09;5025601;28;20049;-45
2021/10/13 00:38:36;;;;;;;12.13;8.60;;;7.70;99.90;;;7.81;76.02;97996.16;5025099;28;20053;-45
2021/10/13 00:41:03;;;;;;;14.10;8.23;;;7.60;99.90;;;7.96;75.73;97997.47;5025126;28;20045;-45
2021/10/13 00:43:31;;;;;;;14.10;9.33;;;7.70;99.90;;;8.07;75.59;98001.84;5025378;28;20049;-45
2021/10/13 00:45:59;;;;;;;15.63;9.10;;;7.90;99.90;;;8.20;75.52;98006.84;5025215;28;20045;-44
2021/10/13 00:48:27;;;;;;;12.07;8.63;;;8.00;99.90;;;8.26;75.25;98006.34;5024555;28;20370;-45
2021/10/13 00:50:55;;;;;;;14.67;9.60;;;8.10;99.90;;;8.31;75.25;97996.13;5025110;28;20064;-45
2021/10/13 00:53:23;;;;;;;14.50;9.27;;;8.10;99.90;;;8.34;75.05;97989.72;5023723;28;20383;-45
2021/10/13 00:55:52;;;;;;;16.07;9.27;;;8.10;99.90;;;8.32;74.72;97991.66;5024466;28;20058;-46
2021/10/13 00:58:20;;;;;;;14.07;8.27;;;8.00;99.90;;;8.26;74.64;97995.72;5024863;28;20049;-45
2021/10/13 01:00:59;;;;;;;12.30;8.03;;;7.90;99.90;;;8.27;74.76;97987.59;5024757;28;20057;-45
2021/10/13 01:03:57;;;;;;;12.30;9.07;;;7.90;99.90;;;8.26;74.53;98003.69;5040934;28;20067;-44
2021/10/13 01:06:40;;;;;;;11.97;7.70;;;7.90;99.90;;;8.14;74.43;98008.25;5044396;28;20067;-46
2021/10/13 01:09:30;;;;;;;13.83;9.10;;;7.80;99.90;;;8.06;74.33;98010.75;5042762;28;20236;-44
2021/10/13 01:12:20;;;;;;;13.27;9.00;;;7.60;99.90;;;8.08;74.32;98019.41;5044912;28;20041;-44
2021/10/13 01:15:15;;;;;;;12.80;7.87;;;7.70;99.90;;;8.07;74.05;98023.03;5047331;28;20056;-47
2021/10/13 01:18:13;;;;;;;14.07;8.57;;;7.70;99.90;;;8.04;74.06;98020.66;5047210;28;20053;-45
2021/10/13 01:20:56;;;;;;;14.77;8.27;;;7.70;99.90;;;8.08;74.22;98032.66;5046897;28;20052;-45
2021/10/13 01:24:07;;;;;;;13.77;7.60;;;7.70;99.90;;;8.12;74.11;98035.88;5049384;28;20057;-45
2021/10/13 01:27:05;;;;;;;12.60;8.47;;;7.70;99.90;;;8.11;73.78;98037.72;5048760;28;20057;-45
2021/10/13 01:29:39;;;;;;;14.40;8.33;;;7.70;99.90;;;8.06;73.55;98039.91;5049672;28;20041;-45
2021/10/13 01:32:22;;;;;;;12.65;7.93;;;7.60;99.90;;;8.03;73.64;98037.56;5045804;28;20363;-45
2021/10/13 01:34:55;;;;;;;10.80;7.10;;;7.60;99.90;;;8.04;73.50;98039.22;5046990;28;20365;-45
2021/10/13 01:37:34;;;;;;;13.23;8.68;;;7.70;99.90;;;8.04;73.60;98041.88;5047764;28;20447;-47
2021/10/13 01:40:05;;;;;;;13.47;8.13;;;7.60;99.90;;;8.04;73.64;98047.16;5047267;28;20252;-45
2021/10/13 01:42:34;;;;;;;12.23;7.83;;;7.70;99.90;;;8.01;73.16;98052.75;5047866;28;20261;-46
2021/10/13 01:45:03;;;;;;;15.70;8.27;;;7.60;99.90;;;8.03;73.48;98058.78;5047251;28;20061;-46
2021/10/13 01:47:33;;;;;;;15.60;9.60;;;7.70;99.90;;;7.96;73.42;98063.75;5048169;28;20067;-45
2021/10/13 01:50:03;;;;;;;13.77;9.50;;;7.60;99.90;;;7.97;73.58;98077.84;5046956;28;20048;-47
2021/10/13 01:52:33;;;;;;;14.27;9.33;;;7.50;99.90;;;7.87;73.51;98083.09;5048470;28;20224;-46
2021/10/13 01:55:03;;;;;;;15.23;9.07;;;7.40;99.90;;;7.87;73.43;98075.16;5048558;28;20055;-45
2021/10/13 01:57:33;;;;;;;17.77;9.87;;;7.40;99.90;;;7.81;73.58;98078.34;5048176;28;20052;-45
2021/10/13 02:00:07;;;;;;;14.40;9.27;;;7.30;99.90;;;7.80;73.46;98081.97;5047847;28;20045;-48
2021/10/13 02:02:37;;;;;;;14.25;8.98;;;7.40;99.90;;;7.82;73.44;98080.03;5048622;28;20063;-47
2021/10/13 02:05:08;;;;;;;13.60;9.83;;;7.40;99.90;;;7.80;73.45;98087.28;5046893;28;20061;-45
2021/10/13 02:07:39;;;;;;;18.07;9.70;;;7.40;99.90;;;7.77;73.42;98087.53;5046047;28;20271;-47
2021/10/13 02:10:10;;;;;;;16.13;9.57;;;7.40;99.90;;;7.84;73.42;98086.03;5048079;28;20070;-46
2021/10/13 02:12:43;;;;;;;14.80;9.63;;;7.50;99.90;;;7.84;73.50;98086.03;5047427;28;20422;-48
2021/10/13 02:15:13;;;;;;;17.60;9.80;;;7.50;99.90;;;7.86;73.66;98095.53;5029300;28;20049;-46
2021/10/13 02:17:46;;;;;;;18.53;10.27;;;7.50;99.90;;;7.91;73.73;98087.19;5048657;28;20045;-47
2021/10/13 02:20:15;;;;;;;15.30;9.93;;;7.60;99.90;;;7.92;73.38;98082.72;5046723;28;20051;-46
2021/10/13 02:22:50;;;;;;;18.53;10.20;;;7.60;99.90;;;7.86;73.75;98097.34;5046639;28;20278;-46
2021/10/13 02:25:18;;;;;;;18.43;9.60;;;7.50;99.90;;;7.87;73.74;98101.66;5046271;28;20053;-46
2021/10/13 02:27:56;;;;;;;15.60;9.13;;;7.50;99.90;;;7.91;73.61;98104.91;5047325;28;20053;-47
2021/10/13 02:30:24;;;;;;;18.63;11.20;;;7.50;99.90;;;7.93;73.57;98101.16;5046654;28;20045;-49
2021/10/13 02:32:52;;;;;;;17.60;9.77;;;7.60;99.90;;;7.82;73.70;98093.28;5049391;28;20224;-48
2021/10/13 02:35:20;;;;;;;15.60;9.20;;;7.40;99.90;;;7.85;73.70;98096.53;5045202;28;20063;-47
2021/10/13 02:37:48;;;;;;;16.03;9.70;;;7.50;99.90;;;7.87;73.70;98102.53;5046928;28;20052;-46
2021/10/13 02:40:16;;;;;;;16.30;9.57;;;7.50;99.90;;;7.91;73.16;98105.75;5047628;28;20047;-46
2021/10/13 02:42:44;;;;;;;16.00;9.83;;;7.50;99.90;;;7.75;73.76;98108.88;5046016;28;20340;-46
2021/10/13 02:45:13;;;;;;;18.63;10.83;;;7.30;99.90;;;7.70;73.71;98121.69;5047381;28;20057;-46
2021/10/13 02:47:54;;;;;;;17.93;10.97;;;7.30;99.90;;;7.68;73.37;98116.53;5046062;28;20381;-46
2021/10/13 02:50:49;;;;;;;17.07;10.30;;;7.30;99.90;;;7.71;73.74;98120.72;5030828;28;20524;-48
2021/10/13 02:53:39;;;;;;;17.33;9.45;;;7.30;99.90;;;7.78;73.87;98118.38;5048396;28;20048;-46
2021/10/13 02:56:21;;;;;;;17.43;9.07;;;7.50;99.90;;;7.79;73.80;98120.03;5047102;28;20063;-45
2021/10/13 02:59:07;;;;;;;20.20;10.00;;;7.40;99.90;;;7.74;73.56;98125.75;5045422;28;20053;-49
2021/10/13 03:01:40;;;;;;;16.33;9.60;;;7.40;99.90;;;7.68;73.36;98124.47;5046643;28;20049;-47
2021/10/13 03:04:24;;;;;;;19.63;10.85;;;7.30;99.90;;;7.68;73.37;98127.13;5046506;28;20063;-47
2021/10/13 03:07:11;;;;;;;18.50;10.30;;;7.20;99.90;;;7.68;73.54;98129.78;5046383;28;20052;-46
2021/10/13 03:09:45;;;;;;;14.93;9.03;;;7.30;99.90;;;7.67;73.62;98120.13;5047174;28;20131;-45
2021/10/13 03:12:14;;;;;;;16.00;10.73;;;7.30;99.90;;;7.73;73.39;98117.94;5045437;28;20053;-46
2021/10/13 03:14:43;;;;;;;17.50;11.47;;;7.30;99.90;;;7.74;73.34;98120.47;5045997;28;20048;-47
2021/10/13 03:17:11;;;;;;;15.90;9.47;;;7.30;99.90;;;7.73;73.67;98120.59;5045777;28;20067;-47
2021/10/13 03:19:40;;;;;;;22.07;12.37;;;7.40;99.90;;;7.73;73.30;98121.41;5045134;28;20063;-48
2021/10/13 03:22:09;;;;;;;15.90;9.60;;;7.30;99.90;;;7.75;73.37;98122.13;5045330;28;20049;-46
2021/10/13 03:24:40;;;;;;;14.10;9.10;;;7.30;99.90;;;7.78;73.32;98124.53;5046635;28;20061;-47
2021/10/13 03:27:08;;;;;;;16.07;11.67;;;7.40;99.90;;;7.79;73.30;98125.34;5047817;28;20079;-46
2021/10/13 03:29:41;;;;;;;17.93;10.50;;;7.40;99.90;;;7.80;73.04;98135.00;5047533;28;20057;-47
2021/10/13 03:32:09;;;;;;;15.73;10.10;;;7.40;99.90;;;7.81;73.08;98126.06;5045260;28;20229;-47
2021/10/13 03:34:40;;;;;;;15.67;9.20;;;7.40;99.90;;;7.86;73.25;98131.81;5046729;28;20040;-45
2021/10/13 03:37:08;;;;;;;16.77;10.13;;;7.50;99.90;;;7.88;73.23;98140.47;5045957;28;20400;-46
2021/10/13 03:39:36;;;;;;;16.33;9.43;;;7.50;99.90;;;7.87;73.19;98138.78;5046669;28;20056;-46
2021/10/13 03:42:04;;;;;;;16.63;10.00;;;7.50;99.90;;;7.86;73.11;98150.38;5045458;28;20067;-46
2021/10/13 03:44:32;;;;;;;16.03;9.27;;;7.50;99.90;;;7.79;72.89;98157.16;5044684;28;20056;-47
2021/10/13 03:47:00;;;;;;;15.17;8.80;;;7.40;99.90;;;7.79;73.17;98152.72;5045486;28;20059;-46
2021/10/13 03:49:28;;;;;;;13.80;8.90;;;7.40;99.90;;;7.72;73.13;98163.97;5047669;28;20063;-47
2021/10/13 03:51:55;;;;;;;16.40;9.67;;;7.50;99.90;;;7.66;73.50;98155.56;5046220;28;20247;-47
2021/10/13 03:54:23;;;;;;;15.30;10.00;;;7.40;99.90;;;7.62;73.44;98158.63;5045765;28;20258;-46
2021/10/13 03:56:51;;;;;;;18.53;10.07;;;7.20;99.90;;;7.54;74.07;98158.41;5044859;28;20057;-46
2021/10/13 03:59:19;;;;;;;19.10;10.90;;;7.20;99.90;;;7.66;73.81;98160.88;5045407;28;20053;-46
2021/10/13 04:01:47;;;;;;;18.63;10.43;;;7.30;99.90;;;7.68;73.70;98166.88;5046049;28;20266;-49
2021/10/13 04:04:15;;;;;;;18.83;10.63;;;7.30;99.90;;;7.69;73.53;98167.69;5044955;28;20055;-46
2021/10/13 04:06:43;;;;;;;16.63;10.13;;;7.30;99.90;;;7.55;73.93;98168.03;5044621;28;20365;-45
2021/10/13 04:09:11;;;;;;;20.57;10.40;;;7.20;99.90;;;7.53;73.56;98173.47;5060079;28;20056;-47
2021/10/13 04:11:39;;;;;;;18.47;10.07;;;7.20;99.90;;;7.60;73.64;98174.63;5046421;28;20254;-46
2021/10/13 04:14:07;;;;;;;22.10;10.60;;;7.20;99.90;;;7.61;73.80;98183.41;5045984;28;20049;-49
2021/10/13 04:16:35;;;;;;;16.80;10.43;;;7.20;99.90;;;7.36;73.89;98187.28;5046628;28;20059;-50
2021/10/13 04:19:03;;;;;;;19.50;10.80;;;7.10;99.90;;;7.40;74.00;98189.53;5045539;28;20070;-46
2021/10/13 04:21:31;;;;;;;18.67;10.20;;;7.00;99.90;;;7.45;73.54;98197.13;5046060;28;20250;-46
2021/10/13 04:23:59;;;;;;;17.70;10.83;;;7.10;99.90;;;7.40;73.92;98194.00;5046903;28;20075;-46
2021/10/13 04:26:26;;;;;;;20.50;12.77;;;7.10;99.90;;;7.43;73.64;98207.00;5046862;28;20057;-47
2021/10/13 04:28:54;;;;;;;18.37;11.20;;;7.10;99.90;;;7.51;73.83;98199.25;5043645;28;20056;-48
2021/10/13 04:31:22;;;;;;;17.67;10.47;;;7.20;99.90;;;7.49;73.77;98202.03;5044237;28;20351;-46
2021/10/13 04:33:50;;;;;;;19.20;10.60;;;7.20;99.90;;;7.48;73.87;98205.66;5062344;28;20057;-45
2021/10/13 04:36:18;;;;;;;21.50;10.90;;;7.20;99.90;;;7.51;73.55;98201.91;5044622;28;20045;-51
2021/10/13 04:38:46;;;;;;;16.37;11.03;;;7.20;99.90;;;7.48;73.44;98199.50;5045843;28;20053;-50
2021/10/13 04:41:14;;;;;;;21.90;11.87;;;7.20;99.90;;;7.47;73.96;98216.38;5044844;28;20053;-47
2021/10/13 04:43:41;;;;;;;21.03;10.70;;;7.10;99.90;;;7.49;73.71;98215.28;5045026;28;20397;-46
2021/10/13 04:46:09;;;;;;;20.10;10.50;;;7.10;99.90;;;7.55;73.72;98213.91;5045728;28;20362;-48
2021/10/13 04:48:37;;;;;;;16.57;9.43;;;7.30;99.90;;;7.60;73.66;98217.03;5052735;28;20060;-46
2021/10/13 04:51:05;;;;;;;20.30;9.90;;;7.30;99.90;;;7.66;73.68;98213.03;5050363;28;20059;-46
2021/10/13 04:53:33;;;;;;;17.97;10.80;;;7.40;99.90;;;7.70;73.73;98219.75;5052466;28;20059;-46
2021/10/13 04:56:01;;;;;;;16.87;10.40;;;7.40;99.90;;;7.75;73.79;98217.53;5052158;28;20079;-46
2021/10/13 04:58:28;;;;;;;18.47;11.00;;;7.40;99.90;;;7.79;73.76;98219.00;5052905;28;20478;-48
2021/10/13 05:00:56;;;;;;;19.00;11.13;;;7.50;99.90;;;7.81;73.73;98219.69;5052176;28;20410;-46
2021/10/13 05:03:24;;;;;;;17.63;9.80;;;7.50;99.90;;;7.76;73.08;98218.41;5050450;28;20204;-48
2021/10/13 05:05:52;;;;;;;18.53;10.57;;;7.40;99.30;;;7.68;73.38;98216.41;5051276;28;20617;-49
2021/10/13 05:08:20;;;;;;;19.53;11.03;;;7.30;99.90;;;7.71;73.37;98217.94;5051004;28;20445;-47
2021/10/13 05:10:48;;;;;;;22.27;11.53;;;7.40;99.90;;;7.76;73.40;98221.06;5050678;28;20037;-46
2021/10/13 05:13:16;;;;;;;21.93;12.17;;;7.40;99.90;;;7.77;73.23;98218.25;5051928;28;20053;-47
2021/10/13 05:15:44;;;;;;;18.60;11.20;;;7.40;99.90;;;7.77;73.43;98212.94;5051357;28;20052;-46
2021/10/13 05:18:12;;;;;;;16.13;9.93;;;7.50;99.70;;;7.77;73.21;98215.59;5051910;28;20681;-46
2021/10/13 05:20:40;;;;;;;18.80;10.27;;;7.40;99.90;;;7.77;73.26;98218.25;5051130;28;20049;-46
2021/10/13 05:23:08;;;;;;;18.33;10.33;;;7.50;99.90;;;7.76;73.18;98207.78;5051196;28;20407;-47
2021/10/13 05:25:36;;;;;;;21.00;10.57;;;7.50;99.90;;;7.78;73.24;98205.84;5051041;28;20045;-46
2021/10/13 05:28:04;;;;;;;15.47;9.30;;;7.60;99.90;;;7.82;73.42;98217.88;5049682;28;20230;-46
2021/10/13 05:30:32;;;;;;;15.67;9.43;;;7.60;99.70;;;7.86;73.21;98211.34;5051024;28;20353;-47
2021/10/13 05:33:00;;;;;;;19.70;10.37;;;7.70;99.70;;;7.92;72.85;98215.28;5050965;28;20239;-47
2021/10/13 05:35:28;;;;;;;16.27;9.57;;;7.70;99.40;;;7.91;72.92;98224.19;5051269;28;20351;-48
2021/10/13 05:37:56;;;;;;;18.20;9.87;;;7.60;98.50;;;7.64;72.69;98226.41;5050534;28;20044;-46
2021/10/13 05:40:24;;;;;;;18.03;9.53;;;7.30;98.40;;;7.64;72.43;98218.47;5051348;28;20055;-47
2021/10/13 05:42:52;;;;;;;19.23;9.70;;;7.20;99.90;;;7.67;72.97;98223.47;5052836;28;20067;-46
2021/10/13 05:45:20;;;;;;;15.47;9.30;;;7.30;99.90;;;7.71;73.12;98221.41;5052093;28;20239;-48
2021/10/13 05:47:48;;;;;;;16.50;10.00;;;7.40;99.90;;;7.74;73.10;98233.59;5051548;28;20057;-47
2021/10/13 05:50:16;;;;;;;17.73;10.53;;;7.40;99.80;;;7.77;73.07;98234.16;5052348;28;20049;-47
2021/10/13 05:52:44;;;;;;;17.20;10.57;;;7.50;99.90;;;7.81;73.08;98234.72;5051420;28;20075;-47
2021/10/13 05:55:28;;;;;;;20.33;10.00;;;7.50;99.80;;;7.84;72.87;98247.75;5051969;28;20044;-48
2021/10/13 05:57:55;;;;;;;17.33;9.97;;;7.60;99.50;;;7.85;72.67;98247.63;5050578;28;20063;-46
2021/10/13 06:00:27;;;;;;;22.97;10.17;;;7.60;99.10;;;7.84;72.66;98263.66;5049166;28;20355;-47
2021/10/13 06:02:56;;;;;;;19.30;10.63;;;7.50;99.40;;;7.85;72.74;98265.31;5047892;28;20060;-50
2021/10/13 06:05:24;;;;;;;17.50;10.53;;;7.60;99.60;;;7.80;72.72;98273.66;5047389;28;20045;-46
2021/10/13 06:07:53;;;;;;;19.70;9.83;;;7.50;98.30;;;7.81;72.66;98283.31;5048255;28;20271;-45
2021/10/13 06:10:21;;;;;;;20.80;11.10;;;7.50;99.70;;;7.77;73.00;98289.81;5047629;28;20246;-48
2021/10/13 06:12:49;;;;;;;16.90;10.67;;;7.50;99.00;;;7.78;72.42;98298.63;5046433;28;20044;-47
2021/10/13 06:15:19;;;;;;;15.43;9.90;;;7.50;99.30;;;7.79;72.71;98298.50;5047373;28;20067;-46
2021/10/13 06:17:47;;;;;;;16.13;10.33;;;7.50;99.90;;;7.85;72.64;98291.81;5047552;28;20061;-46
2021/10/13 06:20:15;;;;;;;19.77;11.23;;;7.60;99.90;;;7.90;72.73;98300.25;5047920;28;20057;-45
2021/10/13 06:22:42;;;;;;;15.47;9.23;;;7.70;99.70;;;7.92;72.95;98300.13;5062422;28;20045;-45
2021/10/13 06:25:11;;;;;;;19.17;9.53;;;7.70;98.10;;;7.86;72.95;98302.31;5046818;28;20471;-47
2021/10/13 06:27:38;;;;;;;18.77;10.77;;;7.60;99.10;;;7.95;72.65;98310.47;5046784;28;20049;-45
2021/10/13 06:30:07;;;;;;;17.30;10.47;;;7.60;99.70;;;7.98;72.65;98311.03;5048027;28;20347;-46
2021/10/13 06:32:36;;;;;;;18.80;11.13;;;7.70;99.10;;;7.95;72.63;98323.72;5046770;28;20067;-45
2021/10/13 06:35:05;;;;;;;17.77;9.53;;;7.60;99.60;;;7.92;72.66;98324.00;5046250;28;20049;-48
2021/10/13 06:37:33;;;;;;;23.50;12.17;;;7.60;99.90;;;7.89;72.87;98328.56;5048675;28;20049;-46
2021/10/13 06:40:01;;;;;;;19.23;11.77;;;7.50;99.90;;;7.92;73.05;98339.91;5048153;28;20053;-45
2021/10/13 06:42:29;;;;;;;20.03;11.43;;;7.60;99.90;;;7.80;73.48;98339.94;5047367;28;20251;-45
2021/10/13 06:44:56;;;;;;;22.57;12.57;;;7.50;99.90;;;7.75;73.65;98341.28;5046479;28;20062;-45
2021/10/13 06:47:26;;;;;;;22.47;12.03;;;7.50;99.90;;;7.72;73.65;98336.25;5047988;28;20056;-46
2021/10/13 06:49:54;;;;;;;21.43;12.47;;;7.40;99.90;;;7.81;73.61;98338.97;5047958;28;20063;-47
2021/10/13 06:52:22;;;;;;;23.80;14.47;;;7.50;99.90;;;7.82;73.63;98337.16;5045999;28;20041;-48
2021/10/13 06:54:50;;;;;;;24.80;13.33;;;7.50;99.90;;;7.81;73.74;98346.06;5045155;28;20052;-46
2021/10/13 06:57:18;;;;;;;26.37;14.47;;;7.50;99.90;;;7.90;73.74;98345.31;5046978;28;20239;-46
2021/10/13 06:59:46;;;;;;;27.03;13.60;;;7.60;99.90;;;7.95;74.01;98347.56;5046347;28;20511;-45
2021/10/13 07:02:13;;;;;;;26.73;15.07;;;7.70;99.90;;;7.81;74.04;98346.06;5046765;28;20063;-46
2021/10/13 07:04:41;;;;;;;28.10;15.23;;;7.60;99.90;;;7.82;73.86;98345.13;5047441;28;20079;-44
2021/10/13 07:07:10;;;;;;;30.40;14.37;;;7.50;99.90;;;7.84;74.19;98356.44;5046535;28;20363;-45
2021/10/13 07:09:38;;;;;;;27.97;15.63;;;7.50;99.90;;;7.90;73.96;98353.28;5045338;28;20061;-44
2021/10/13 07:12:06;;;;;;;32.33;17.60;;;7.60;99.90;;;7.95;74.29;98347.56;5045864;28;20358;-44
2021/10/13 07:14:34;;;;;;;32.03;15.40;;;7.70;99.90;;;7.96;74.02;98350.09;5045417;28;20339;-45
2021/10/13 07:17:02;;;;;;;35.43;17.00;;;7.70;99.90;;;8.00;74.07;98350.69;5045217;28;20351;-46
2021/10/13 07:19:30;;;;;;;30.97;17.00;;;7.70;99.90;;;8.05;73.92;98353.81;5045116;28;20335;-45
2021/10/13 07:21:58;;;;;;;39.63;20.17;;;7.80;99.90;;;7.96;74.02;98350.09;5045458;28;20484;-46
2021/10/13 07:24:26;;;;;;;39.40;19.43;;;7.70;99.90;;;8.03;74.02;98356.59;5044921;28;20063;-45
2021/10/13 07:26:54;;;;;;;40.47;20.07;;;7.70;99.90;;;8.05;74.00;98344.03;5045460;28;20059;-45
2021/10/13 07:29:21;;;;;;;39.47;19.63;;;7.80;99.90;;;8.05;74.07;98357.31;5044495;28;20059;-44
2021/10/13 07:31:49;;;;;;;38.27;19.10;;;7.80;99.90;;;7.98;74.27;98345.50;5045550;28;20048;-46
2021/10/13 07:34:17;;;;;;;39.17;19.43;;;7.70;99.90;;;8.09;74.03;98353.41;5045877;28;20067;-47
2021/10/13 07:36:45;;;;;;;41.53;19.50;;;7.90;99.90;;;8.17;74.09;98357.25;5046697;28;20058;-45
2021/10/13 07:39:13;;;;;;;38.73;18.20;;;8.00;99.90;;;8.22;74.19;98352.38;5046666;28;20336;-49
2021/10/13 07:41:41;;;;;;;38.50;17.70;;;8.10;99.90;;;8.19;73.99;98358.78;5047158;28;20063;-47
2021/10/13 07:44:09;;;;;;;40.70;20.30;;;8.00;99.90;;;8.15;74.48;98359.19;5045674;28;20061;-46
2021/10/13 07:46:37;;;;;;;37.73;19.07;;;7.90;99.90;;;8.17;74.13;98367.88;5047051;28;20060;-47
2021/10/13 07:49:05;;;;;;;39.77;20.43;;;8.00;99.90;;;8.27;74.15;98372.25;5046737;28;20052;-46
2021/10/13 07:51:33;;;;;;;42.63;19.37;;;8.00;99.90;;;8.26;73.80;98369.75;5045559;28;20041;-48
2021/10/13 07:54:01;;;;;;;37.83;19.60;;;8.10;99.90;;;8.29;73.92;98369.47;5045187;28;20389;-46
2021/10/13 07:56:29;;;;;;;41.07;22.53;;;8.10;99.90;;;8.39;74.12;98375.69;5045557;28;20378;-50
2021/10/13 07:58:56;;;;;;;33.50;17.90;;;8.30;99.90;;;8.47;73.96;98380.38;5043048;28;20037;-48
2021/10/13 08:01:25;;;;;;;32.73;18.30;;;8.30;99.90;;;8.46;73.94;98384.00;5042861;28;20243;-51
2021/10/13 08:03:55;;;;;;;34.93;17.80;;;8.30;99.90;;;8.15;73.90;98386.56;5043926;28;20076;-50
2021/10/13 08:06:22;;;;;;;33.63;18.10;;;8.00;99.90;;;8.27;74.08;98384.69;5045346;28;20803;-51
2021/10/13 08:08:50;;;;;;;34.13;17.27;;;8.10;99.90;;;8.11;74.32;98385.13;5044579;28;20501;-47
2021/10/13 08:11:18;;;;;;;35.30;17.23;;;7.90;99.90;;;8.08;74.80;98388.03;5045470;28;20049;-46
2021/10/13 08:13:46;;;;;;;26.90;15.77;;;7.90;99.90;;;8.25;74.39;98390.09;5045140;28;20051;-46
2021/10/13 08:16:14;;;;;;;29.80;15.43;;;8.10;99.90;;;8.14;74.63;98397.28;5044890;28;20155;-48
2021/10/13 08:18:42;;;;;;;36.00;16.93;;;7.90;99.90;;;8.18;74.48;98399.56;5044298;28;20235;-47
2021/10/13 08:21:11;;;;;;;27.13;16.23;;;8.00;99.90;;;8.17;74.36;98400.53;5044986;28;20049;-45
2021/10/13 08:23:39;;;;;;;26.33;14.70;;;8.00;99.90;;;8.23;74.36;98407.13;5044470;28;20438;-47
2021/10/13 08:26:07;;;;;;;30.10;16.00;;;8.00;99.90;;;8.31;74.27;98404.69;5045210;28;20049;-47
2021/10/13 08:28:35;;;;;;;29.00;14.90;;;8.10;99.90;;;8.40;74.42;98408.38;5043936;28;20424;-47
2021/10/13 08:31:03;;;;;;;29.17;15.60;;;8.20;99.90;;;8.49;74.33;98410.28;5045035;28;20362;-46
2021/10/13 08:33:31;;;;;;;26.27;15.70;;;8.40;99.90;;;8.55;74.06;98412.44;5045750;28;20049;-46
2021/10/13 08:35:59;;;;;;;27.23;15.13;;;8.40;99.90;;;8.48;74.17;98420.06;5044721;28;20071;-47
2021/10/13 08:38:27;;;;;;;29.53;15.53;;;8.40;99.90;;;8.58;74.13;98414.81;5044327;28;20071;-46
2021/10/13 08:40:55;;;;;;;34.10;16.17;;;8.40;99.90;;;8.70;74.05;98406.78;5045001;28;20060;-48
2021/10/13 08:43:23;;;;;;;27.60;14.67;;;8.60;99.90;;;8.81;73.96;98404.06;5045609;28;20060;-50
2021/10/13 08:45:51;;;;;;;26.93;14.50;;;8.70;99.90;;;8.84;73.90;98406.44;5045146;28;20053;-47
2021/10/13 08:48:19;;;;;;;24.57;14.33;;;8.80;99.90;;;8.71;73.78;98404.00;5044581;28;20067;-45
2021/10/13 08:50:49;;;;;;;21.90;13.37;;;8.60;99.90;;;8.86;73.58;98410.66;5045199;28;20256;-46
2021/10/13 08:53:24;;;;;;;34.47;20.33;;;8.70;99.90;;;8.82;73.44;98408.38;5037433;28;20168;-46
2021/10/13 08:55:53;;;;;;;31.20;17.23;;;8.70;99.90;;;8.90;73.57;98403.28;5042899;28;20049;-48
2021/10/13 08:58:27;;;;;;;23.67;14.87;;;8.70;99.90;;;8.91;73.59;98410.25;5044076;28;20049;-46
2021/10/13 09:01:02;;;;;;;26.83;14.67;;;8.70;99.90;;;8.82;73.17;98406.59;5044526;28;20053;-46
2021/10/13 09:03:36;;;;;;;;;;;8.60;99.00;;;8.75;72.90;98415.22;5045427;28;20259;-47
2021/10/13 09:06:21;;;;;;;23.08;13.20;;;8.70;99.20;;;8.75;72.46;98407.25;5043233;28;20207;-46
2021/10/13 09:09:09;;;;;;;27.33;13.07;;;8.60;98.10;;;8.79;73.12;98416.63;5043807;28;20045;-48
2021/10/13 09:11:46;;;;;;;24.33;12.77;;;8.60;99.90;;;8.84;73.14;98417.91;5044169;28;20328;-47
2021/10/13 09:14:21;;;;;;;21.73;12.80;;;8.50;99.90;;;8.87;73.12;98419.47;5042664;28;20057;-47
2021/10/13 09:17:08;;;;;;;24.00;12.37;;;8.70;98.30;;;8.84;72.73;98425.88;5044580;28;20049;-48
2021/10/13 09:19:47;;;;;;;22.60;12.50;;;8.80;99.10;;;8.98;73.12;98426.53;5044762;28;20224;-47
2021/10/13 09:22:18;;;;;;;20.30;12.20;;;8.80;98.30;;;9.08;72.75;98424.75;5044747;28;20061;-47
2021/10/13 09:24:52;;;;;;;20.30;11.50;;;9.00;99.00;;;9.17;72.48;98426.59;5043774;28;20048;-50
2021/10/13 09:27:29;;;;;;;18.15;11.52;;;9.10;98.50;;;9.29;72.90;98426.53;5044748;28;20049;-48
2021/10/13 09:30:07;;;;;;;23.83;14.80;;;9.20;98.80;;;9.31;72.10;98428.06;5043736;28;20057;-48
2021/10/13 09:32:53;;;;;;;20.87;12.63;;;9.40;96.70;;;9.42;72.37;98422.66;5042602;28;20056;-46
2021/10/13 09:35:30;;;;;;;19.60;10.93;;;9.40;98.00;;;9.40;72.39;98429.91;5045636;28;20043;-48
2021/10/13 09:37:58;;;;;;;21.00;11.80;;;9.40;97.10;;;9.33;72.18;98425.28;5048597;28;20216;-48
2021/10/13 09:40:35;;;;;;;19.27;11.80;;;9.30;96.70;;;9.41;72.50;98428.09;5047047;28;20244;-47
2021/10/13 09:43:03;;;;;;;19.97;10.80;;;9.30;98.30;;;9.42;72.51;98429.75;5048219;28;20056;-49
2021/10/13 09:45:37;;;;;;;18.93;11.77;;;9.30;98.20;;;9.38;71.98;98426.56;5048071;28;20049;-50
2021/10/13 09:48:07;;;;;;;17.20;9.80;;;9.40;97.00;;;9.40;71.71;98427.25;5047530;28;20053;-51
2021/10/13 09:50:50;;;;;;;12.73;8.63;;;9.30;96.00;;;9.44;71.73;98425.16;5049528;28;20059;-50
2021/10/13 09:53:26;;;;;;;13.90;9.88;;;9.30;96.50;;;9.25;71.13;98428.59;5047139;28;20049;-48
2021/10/13 09:55:54;;;;;;;12.83;8.33;;;9.20;95.50;;;9.39;71.53;98424.72;5046433;28;20037;-51
2021/10/13 09:58:36;;;;;;;14.13;7.97;;;9.20;96.40;;;9.30;70.64;98429.03;5046798;28;20075;-47
2021/10/13 10:01:17;;;;;;;14.57;9.00;;;9.20;94.80;;;9.19;70.84;98423.78;5046667;28;20060;-48
2021/10/13 10:03:47;;;;;;;12.87;8.30;;;9.20;95.50;;;9.27;71.15;98422.16;5047369;28;20067;-48
2021/10/13 10:06:16;;;;;;;14.27;9.10;;;9.20;96.10;;;9.30;71.26;98420.22;5047863;28;20059;-47
2021/10/13 10:08:53;;;;;;;9.17;6.80;;;9.30;95.90;;;9.23;69.93;98420.75;5046106;28;20536;-49
2021/10/13 10:11:34;;;;;;;13.20;7.77;;;9.20;93.50;;;9.02;68.91;98420.78;5047752;28;20063;-47
2021/10/13 10:14:24;;;;;;;11.47;7.33;;;9.10;92.50;;;9.21;70.57;98428.03;5047383;28;20385;-47
2021/10/13 10:16:52;;;;;;;12.47;6.37;;;9.20;95.00;;;9.12;69.83;98427.97;5056754;28;20055;-50
2021/10/13 10:19:22;;;;;;;10.10;6.13;;;9.10;91.40;;;9.25;69.80;98417.97;5046851;28;20049;-46
2021/10/13 10:22:06;;;;;;;11.02;6.68;;;9.30;93.40;;;9.08;69.30;98422.09;5047678;28;20068;-48
2021/10/13 10:24:36;;;;;;;11.37;7.57;;;9.30;91.80;;;9.32;70.50;98416.44;5047710;28;20787;-49
2021/10/13 10:27:30;;;;;;;11.43;7.35;;;9.30;94.30;;;9.47;70.10;98419.56;5046831;28;20076;-49
2021/10/13 10:30:09;;;;;;;10.75;7.95;;;9.60;94.00;;;9.60;70.33;98414.03;5047413;28;20072;-49
2021/10/13 10:33:02;;;;;;;10.73;7.77;;;9.80;94.20;;;9.66;70.45;98418.78;5047527;28;20063;-53
2021/10/13 10:35:41;;;;;;;9.30;6.83;;;9.80;94.70;;;9.77;70.33;98421.34;5045049;28;20583;-51
2021/10/13 10:38:12;;;;;;;10.00;5.70;;;9.90;93.60;;;9.75;69.71;98422.44;5047477;28;20059;-50
2021/10/13 10:40:40;;;;;;;10.07;5.23;;;9.80;91.20;;;9.69;68.56;98429.13;5048752;28;20045;-55